createdAt,value
2018-12-03T00:01:28.773Z,1.00
2018-12-03T00:04:15.361Z,0.70
2018-12-03T00:06:44.354Z,0.70
2018-12-03T00:09:12.690Z,2.03
2018-12-03T00:11:40.992Z,0.70
2018-12-03T00:14:09.826Z,0.90
2018-12-03T00:16:38.250Z,0.60
2018-12-03T00:19:14.246Z,0.70
2018-12-03T00:21:42.647Z,0.60
2018-12-03T00:24:11.076Z,0.60
2018-12-03T00:26:39.516Z,0.60
2018-12-03T00:29:07.870Z,0.90
2018-12-03T00:31:36.230Z,4.40
2018-12-03T00:34:04.584Z,0.90
2018-12-03T00:36:32.905Z,0.50
2018-12-03T00:39:01.274Z,0.70
2018-12-03T00:41:29.576Z,0.50
2018-12-03T00:43:58.026Z,0.50
2018-12-03T00:46:26.382Z,1.42
2018-12-03T00:48:55.070Z,0.60
2018-12-03T00:51:23.423Z,1.05
2018-12-03T00:53:51.787Z,0.60
2018-12-03T00:56:20.302Z,1.35
2018-12-03T00:58:48.633Z,1.07
2018-12-03T01:01:17.055Z,0.60
2018-12-03T01:03:45.358Z,0.60
2018-12-03T01:06:13.750Z,0.60
2018-12-03T01:08:42.095Z,1.67
2018-12-03T01:11:10.500Z,0.50
2018-12-03T01:13:38.868Z,0.53
2018-12-03T01:16:07.203Z,0.50
2018-12-03T01:18:35.642Z,0.60
2018-12-03T01:21:04.018Z,1.55
2018-12-03T01:23:32.566Z,5.03
2018-12-03T01:26:01.384Z,0.60
2018-12-03T01:28:29.694Z,0.60
2018-12-03T01:30:58.332Z,0.80
2018-12-03T01:33:26.610Z,0.60
2018-12-03T01:35:55.073Z,0.60
2018-12-03T01:38:23.394Z,0.60
2018-12-03T01:40:51.729Z,0.62
2018-12-03T01:43:20.229Z,0.50
2018-12-03T01:45:48.628Z,0.90
2018-12-03T01:48:16.910Z,0.70
2018-12-03T01:50:45.313Z,0.60
2018-12-03T01:53:13.607Z,0.70
2018-12-03T01:55:42.614Z,0.60
2018-12-03T01:58:10.902Z,0.60
2018-12-03T02:00:39.710Z,6.13
2018-12-03T02:03:08.062Z,0.60
2018-12-03T02:05:36.369Z,0.60
2018-12-03T02:08:04.667Z,0.60
2018-12-03T02:10:32.990Z,1.12
2018-12-03T02:13:01.270Z,0.60
2018-12-03T02:15:29.677Z,1.57
2018-12-03T02:17:57.964Z,0.60
2018-12-03T02:20:26.459Z,0.60
2018-12-03T02:22:54.802Z,0.80
2018-12-03T02:25:23.200Z,0.60
2018-12-03T02:27:51.494Z,0.60
2018-12-03T02:30:19.815Z,4.70
2018-12-03T02:32:48.096Z,1.70
2018-12-03T02:35:16.575Z,0.60
2018-12-03T02:37:44.909Z,0.60
2018-12-03T02:40:15.384Z,0.60
2018-12-03T02:42:43.683Z,0.50
2018-12-03T02:45:12.990Z,0.50
2018-12-03T02:47:41.296Z,0.70
2018-12-03T02:50:11.695Z,2.30
2018-12-03T02:52:40.582Z,0.70
2018-12-03T02:55:10.002Z,1.53
2018-12-03T02:57:38.546Z,2.65
2018-12-03T03:00:11.445Z,0.60
2018-12-03T03:02:39.793Z,0.65
2018-12-03T03:05:09.938Z,0.60
2018-12-03T03:07:38.244Z,1.25
2018-12-03T03:10:12.024Z,2.90
2018-12-03T03:12:40.555Z,2.55
2018-12-03T03:15:13.219Z,0.60
2018-12-03T03:17:41.665Z,2.30
2018-12-03T03:20:12.728Z,0.60
2018-12-03T03:22:41.067Z,0.60
2018-12-03T03:25:10.325Z,0.80
2018-12-03T03:27:38.862Z,0.60
2018-12-03T03:30:10.353Z,0.75
2018-12-03T03:32:38.673Z,0.60
2018-12-03T03:35:08.458Z,0.60
2018-12-03T03:37:37.094Z,1.30
2018-12-03T03:40:08.270Z,0.97
2018-12-03T03:42:36.727Z,0.60
2018-12-03T03:45:08.262Z,2.47
2018-12-03T03:47:36.820Z,0.60
2018-12-03T03:50:06.276Z,3.15
2018-12-03T03:52:34.919Z,1.00
2018-12-03T03:55:03.314Z,0.50
2018-12-03T03:57:31.896Z,0.60
2018-12-03T04:00:00.302Z,0.60
2018-12-03T04:02:29.167Z,0.60
2018-12-03T04:04:57.821Z,0.60
2018-12-03T04:07:26.539Z,0.88
2018-12-03T04:09:55.100Z,1.15
2018-12-03T04:12:23.667Z,0.50
2018-12-03T04:14:52.288Z,0.90
2018-12-03T04:17:21.421Z,0.73
2018-12-03T04:19:49.952Z,3.23
2018-12-03T04:22:18.490Z,0.60
2018-12-03T04:24:47.066Z,1.20
2018-12-03T04:27:15.778Z,0.80
2018-12-03T04:29:44.408Z,0.60
2018-12-03T04:32:12.981Z,1.87
2018-12-03T04:34:41.672Z,0.60
2018-12-03T04:37:10.437Z,0.90
2018-12-03T04:39:39.557Z,0.60
2018-12-03T04:42:08.448Z,2.55
2018-12-03T04:44:37.245Z,2.00
2018-12-03T04:47:06.112Z,5.62
2018-12-03T04:49:34.819Z,1.25
2018-12-03T04:52:03.606Z,0.60
2018-12-03T04:54:32.177Z,0.60
2018-12-03T04:57:00.644Z,0.70
2018-12-03T04:59:29.148Z,1.52
2018-12-03T05:01:57.774Z,2.58
2018-12-03T05:04:26.200Z,0.70
2018-12-03T05:06:54.656Z,0.82
2018-12-03T05:09:23.277Z,0.60
2018-12-03T05:11:51.772Z,0.72
2018-12-03T05:14:20.196Z,0.90
2018-12-03T05:16:48.588Z,1.70
2018-12-03T05:19:16.891Z,0.60
2018-12-03T05:21:45.270Z,0.70
2018-12-03T05:24:13.818Z,1.50
2018-12-03T05:26:42.208Z,0.60
2018-12-03T05:29:10.506Z,0.60
2018-12-03T05:31:38.822Z,0.80
2018-12-03T05:34:07.280Z,2.65
2018-12-03T05:36:35.555Z,0.70
2018-12-03T05:39:04.693Z,0.60
2018-12-03T05:41:33.017Z,1.35
2018-12-03T05:44:01.377Z,0.95
2018-12-03T05:46:29.666Z,0.70
2018-12-03T05:48:58.172Z,0.80
2018-12-03T05:51:26.522Z,1.45
2018-12-03T05:53:54.901Z,1.42
2018-12-03T05:56:23.202Z,0.80
2018-12-03T05:58:51.582Z,0.60
2018-12-03T06:01:19.833Z,4.43
2018-12-03T06:03:48.246Z,0.53
2018-12-03T06:06:16.641Z,1.37
2018-12-03T06:08:44.965Z,1.23
2018-12-03T06:11:13.287Z,0.80
2018-12-03T06:13:41.642Z,0.60
2018-12-03T06:16:10.321Z,0.60
2018-12-03T06:18:38.594Z,1.47
2018-12-03T06:21:07.062Z,1.87
2018-12-03T06:23:35.391Z,0.70
2018-12-03T06:26:03.700Z,0.60
2018-12-03T06:28:32.122Z,0.80
2018-12-03T06:31:00.530Z,0.70
2018-12-03T06:33:28.851Z,0.70
2018-12-03T06:35:57.207Z,0.70
2018-12-03T06:38:25.532Z,1.53
2018-12-03T06:40:54.032Z,1.53
2018-12-03T06:43:22.411Z,1.40
2018-12-03T06:45:50.777Z,0.60
2018-12-03T06:48:21.826Z,2.90
2018-12-03T06:50:50.146Z,3.03
2018-12-03T06:53:18.420Z,0.60
2018-12-03T06:55:46.957Z,0.90
2018-12-03T06:58:16.276Z,1.30
2018-12-03T07:00:46.908Z,0.80
2018-12-03T07:03:15.184Z,0.90
2018-12-03T07:05:44.254Z,0.60
2018-12-03T07:08:12.512Z,0.60
2018-12-03T07:10:40.767Z,1.00
2018-12-03T07:13:13.272Z,1.27
2018-12-03T07:15:43.147Z,10.90
2018-12-03T07:18:12.246Z,0.60
2018-12-03T07:20:40.510Z,7.80
2018-12-03T07:23:08.846Z,0.80
2018-12-03T07:25:37.418Z,2.17
2018-12-03T07:28:06.195Z,1.52
2018-12-03T07:30:34.469Z,0.60
2018-12-03T07:33:02.741Z,2.60
2018-12-03T07:35:31.184Z,0.70
2018-12-03T07:37:59.523Z,0.70
2018-12-03T07:40:27.818Z,1.90
2018-12-03T07:42:56.135Z,0.60
2018-12-03T07:45:25.410Z,1.70
2018-12-03T07:47:53.727Z,5.12
2018-12-03T07:50:22.975Z,0.90
2018-12-03T07:52:51.325Z,3.13
2018-12-03T07:55:20.869Z,1.77
2018-12-03T07:57:59.551Z,2.98
2018-12-03T08:00:33.760Z,1.47
2018-12-03T08:03:02.166Z,1.57
2018-12-03T08:05:30.517Z,2.35
2018-12-03T08:07:59.105Z,1.47
2018-12-03T08:10:27.512Z,1.12
2018-12-03T08:12:55.961Z,0.60
2018-12-03T08:15:24.330Z,0.78
2018-12-03T08:17:57.399Z,1.98
2018-12-03T08:20:29.434Z,1.30
2018-12-03T08:23:01.270Z,0.70
2018-12-03T08:25:29.578Z,0.60
2018-12-03T08:27:57.976Z,2.10
2018-12-03T08:30:26.460Z,1.03
2018-12-03T08:32:54.902Z,1.80
2018-12-03T08:35:23.255Z,0.70
2018-12-03T08:37:51.662Z,1.35
2018-12-03T08:40:20.469Z,1.57
2018-12-03T08:42:51.964Z,2.13
2018-12-03T08:45:21.199Z,1.03
2018-12-03T08:47:49.992Z,2.00
2018-12-03T08:50:23.442Z,1.33
2018-12-03T08:52:51.898Z,0.70
2018-12-03T08:55:20.224Z,2.00
2018-12-03T08:57:48.628Z,1.73
2018-12-03T09:00:32.013Z,3.07
2018-12-03T09:03:07.186Z,1.20
2018-12-03T09:05:37.727Z,5.40
2018-12-03T09:08:07.434Z,2.97
2018-12-03T09:10:35.926Z,1.07
2018-12-03T09:13:22.726Z,0.70
2018-12-03T09:16:03.158Z,0.60
2018-12-03T09:18:33.597Z,2.53
2018-12-03T09:21:02.378Z,1.97
2018-12-03T09:23:30.668Z,1.00
2018-12-03T09:25:58.971Z,0.87
2018-12-03T09:28:27.306Z,0.90
2018-12-03T09:30:55.666Z,2.27
2018-12-03T09:33:23.930Z,1.00
2018-12-03T09:35:52.329Z,2.80
2018-12-03T09:38:20.721Z,2.10
2018-12-03T09:40:49.034Z,1.37
2018-12-03T09:43:17.357Z,2.20
2018-12-03T09:45:45.701Z,1.95
2018-12-03T09:48:14.045Z,1.33
2018-12-03T09:50:42.390Z,5.33
2018-12-03T09:53:10.729Z,1.20
2018-12-03T09:55:39.164Z,3.63
2018-12-03T09:58:13.885Z,1.77
2018-12-03T10:00:42.714Z,4.87
2018-12-03T10:03:20.812Z,2.33
2018-12-03T10:05:51.843Z,2.45
2018-12-03T10:08:27.687Z,2.15
2018-12-03T10:10:57.216Z,1.23
2018-12-03T10:13:26.414Z,2.85
2018-12-03T10:15:54.804Z,1.00
2018-12-03T10:18:23.168Z,4.80
2018-12-03T10:20:53.077Z,1.15
2018-12-03T10:23:21.390Z,1.50
2018-12-03T10:25:51.914Z,1.00
2018-12-03T10:28:20.575Z,0.70
2018-12-03T10:30:49.550Z,1.53
2018-12-03T10:33:21.954Z,1.40
2018-12-03T10:35:50.478Z,1.53
2018-12-03T10:38:21.926Z,1.47
2018-12-03T10:41:01.109Z,1.70
2018-12-03T10:43:29.443Z,3.70
2018-12-03T10:45:57.876Z,1.10
2018-12-03T10:48:26.128Z,3.73
2018-12-03T10:50:54.392Z,2.97
2018-12-03T10:53:27.527Z,2.40
2018-12-03T10:55:55.973Z,1.07
2018-12-03T10:58:24.473Z,1.13
2018-12-03T11:01:05.971Z,1.43
2018-12-03T11:03:39.550Z,3.53
2018-12-03T11:06:13.374Z,2.03
2018-12-03T11:08:41.699Z,1.50
2018-12-03T11:11:10.039Z,2.50
2018-12-03T11:13:38.429Z,3.70
2018-12-03T11:16:09.128Z,2.10
2018-12-03T11:18:47.471Z,3.63
2018-12-03T11:21:15.766Z,0.70
2018-12-03T11:23:44.113Z,2.10
2018-12-03T11:26:12.407Z,2.10
2018-12-03T11:28:43.557Z,2.40
2018-12-03T11:31:19.350Z,1.50
2018-12-03T11:33:47.670Z,1.30
2018-12-03T11:36:17.044Z,0.80
2018-12-03T11:39:55.719Z,2.13
2018-12-03T11:42:29.080Z,0.90
2018-12-03T11:44:57.434Z,0.70
2018-12-03T11:47:25.924Z,2.53
2018-12-03T11:49:54.310Z,1.57
2018-12-03T11:52:22.584Z,0.80
2018-12-03T11:54:50.987Z,0.97
2018-12-03T11:57:19.325Z,2.80
2018-12-03T11:59:47.608Z,2.27
2018-12-03T12:02:16.014Z,0.70
2018-12-03T12:04:44.478Z,2.40
2018-12-03T12:07:12.841Z,1.37
2018-12-03T12:09:41.232Z,0.60
2018-12-03T12:12:09.614Z,2.08
2018-12-03T12:14:37.896Z,4.00
2018-12-03T12:17:06.597Z,29.60
2018-12-03T12:19:34.890Z,62.83
2018-12-03T12:22:03.452Z,50.27
2018-12-03T12:24:31.792Z,22.67
2018-12-03T12:27:00.109Z,19.23
2018-12-03T12:29:28.425Z,37.07
2018-12-03T12:31:56.769Z,34.27
2018-12-03T12:34:25.074Z,39.40
2018-12-03T12:36:53.375Z,40.50
2018-12-03T12:39:21.687Z,32.07
2018-12-03T12:41:49.985Z,37.53
2018-12-03T12:44:18.362Z,9.20
2018-12-03T12:46:48.832Z,2.90
2018-12-03T12:49:17.139Z,0.73
2018-12-03T12:51:45.502Z,3.30
2018-12-03T12:54:13.796Z,3.10
2018-12-03T12:56:42.146Z,1.10
2018-12-03T12:59:10.476Z,2.40
2018-12-03T13:01:38.857Z,0.90
2018-12-03T13:04:07.794Z,3.27
2018-12-03T13:06:36.223Z,0.77
2018-12-03T13:09:07.326Z,1.57
2018-12-03T13:11:35.780Z,1.33
2018-12-03T13:14:04.209Z,0.70
2018-12-03T13:16:32.463Z,2.90
2018-12-03T13:19:00.714Z,2.50
2018-12-03T13:21:29.139Z,1.67
2018-12-03T13:23:57.428Z,3.63
2018-12-03T13:26:25.903Z,4.30
2018-12-03T13:28:54.230Z,1.47
2018-12-03T13:31:22.560Z,5.07
2018-12-03T13:33:50.892Z,1.20
2018-12-03T13:36:19.392Z,4.10
2018-12-03T13:38:47.757Z,1.35
2018-12-03T13:41:16.034Z,3.60
2018-12-03T13:43:44.469Z,3.60
2018-12-03T13:46:12.799Z,1.72
2018-12-03T13:48:41.294Z,2.23
2018-12-03T13:51:09.611Z,1.60
2018-12-03T13:53:38.020Z,0.70
2018-12-03T13:56:06.534Z,2.40
2018-12-03T13:58:34.871Z,0.70
2018-12-03T14:01:03.380Z,2.25
2018-12-03T14:03:34.227Z,2.08
2018-12-03T14:06:13.992Z,1.43
2018-12-03T14:09:28.672Z,2.00
2018-12-03T14:12:07.779Z,1.20
2018-12-03T14:15:16.827Z,3.98
2018-12-03T14:17:49.833Z,1.57
2018-12-03T14:20:19.428Z,1.20
2018-12-03T14:22:54.599Z,3.05
2018-12-03T14:25:23.078Z,1.87
2018-12-03T14:27:51.408Z,2.50
2018-12-03T14:30:19.815Z,2.00
2018-12-03T14:32:48.328Z,4.10
2018-12-03T14:35:16.716Z,1.70
2018-12-03T14:37:45.010Z,2.60
2018-12-03T14:40:13.518Z,6.10
2018-12-03T14:42:41.883Z,1.30
2018-12-03T14:45:11.610Z,0.80
2018-12-03T14:47:39.966Z,5.23
2018-12-03T14:50:10.101Z,0.80
2018-12-03T14:52:38.477Z,2.30
2018-12-03T14:55:07.741Z,1.27
2018-12-03T14:57:36.239Z,3.90
2018-12-03T15:00:05.347Z,0.73
2018-12-03T15:02:34.354Z,1.53
2018-12-03T15:05:02.857Z,1.87
2018-12-03T15:07:31.470Z,5.53
2018-12-03T15:09:59.998Z,1.70
2018-12-03T15:12:28.350Z,1.83
2018-12-03T15:14:56.727Z,0.83
2018-12-03T15:17:25.199Z,1.27
2018-12-03T15:19:53.839Z,1.10
2018-12-03T15:22:22.192Z,1.27
2018-12-03T15:24:50.540Z,1.00
2018-12-03T15:27:18.930Z,1.53
2018-12-03T15:29:47.302Z,1.53
2018-12-03T15:32:15.702Z,0.97
2018-12-03T15:34:44.071Z,2.33
2018-12-03T15:37:12.396Z,3.00
2018-12-03T15:39:40.746Z,1.43
2018-12-03T15:42:09.176Z,1.52
2018-12-03T15:44:37.578Z,1.87
2018-12-03T15:47:05.859Z,0.80
2018-12-03T15:49:34.247Z,0.90
2018-12-03T15:52:02.719Z,1.85
2018-12-03T15:54:31.341Z,1.30
2018-12-03T15:56:59.840Z,1.40
2018-12-03T15:59:28.193Z,1.00
2018-12-03T16:01:56.464Z,0.60
2018-12-03T16:04:24.947Z,0.70
2018-12-03T16:06:53.247Z,0.80
2018-12-03T16:09:21.543Z,1.40
2018-12-03T16:11:49.877Z,0.60
2018-12-03T16:14:18.182Z,1.30
2018-12-03T16:16:46.815Z,1.53
2018-12-03T16:19:15.159Z,2.08
2018-12-03T16:21:43.470Z,1.90
2018-12-03T16:24:11.949Z,1.83
2018-12-03T16:26:40.281Z,2.23
2018-12-03T16:29:08.646Z,1.70
2018-12-03T16:31:37.176Z,1.90
2018-12-03T16:34:05.515Z,1.37
2018-12-03T16:36:34.394Z,1.97
2018-12-03T16:39:02.750Z,2.10
2018-12-03T16:41:31.015Z,1.60
2018-12-03T16:43:59.519Z,2.02
2018-12-03T16:46:27.863Z,1.10
2018-12-03T16:48:56.294Z,3.75
2018-12-03T16:51:24.656Z,1.12
2018-12-03T16:53:53.094Z,1.22
2018-12-03T16:56:21.459Z,4.12
2018-12-03T16:58:49.793Z,4.60
2018-12-03T17:01:18.132Z,3.67
2018-12-03T17:03:46.439Z,3.52
2018-12-03T17:06:14.817Z,1.20
2018-12-03T17:08:43.125Z,4.70
2018-12-03T17:11:11.490Z,2.23
2018-12-03T17:13:39.884Z,1.20
2018-12-03T17:16:08.231Z,3.37
2018-12-03T17:18:36.632Z,2.20
2018-12-03T17:21:09.940Z,2.10
2018-12-03T17:24:45.282Z,3.33
2018-12-03T17:27:13.656Z,8.43
2018-12-03T17:29:41.952Z,1.30
2018-12-03T17:32:10.333Z,1.25
2018-12-03T17:34:38.977Z,1.65
2018-12-03T17:37:07.505Z,3.30
2018-12-03T17:39:36.167Z,1.50
2018-12-03T17:42:04.526Z,1.07
2018-12-03T17:44:33.131Z,1.35
2018-12-03T17:47:01.475Z,1.50
2018-12-03T17:49:29.834Z,4.50
2018-12-03T17:51:58.236Z,7.77
2018-12-03T17:54:26.915Z,3.37
2018-12-03T17:56:55.950Z,1.35
2018-12-03T17:59:24.412Z,1.10
2018-12-03T18:01:53.069Z,3.22
2018-12-03T18:04:21.466Z,1.20
2018-12-03T18:06:49.914Z,1.90
2018-12-03T18:09:18.336Z,2.70
2018-12-03T18:11:47.109Z,0.98
2018-12-03T18:14:15.851Z,0.80
2018-12-03T18:16:44.678Z,1.92
2018-12-03T18:19:13.201Z,1.07
2018-12-03T18:21:41.574Z,4.30
2018-12-03T18:24:10.153Z,1.63
2018-12-03T18:26:38.557Z,1.55
2018-12-03T18:29:06.945Z,7.03
2018-12-03T18:31:36.225Z,1.05
2018-12-03T18:34:04.835Z,1.67
2018-12-03T18:36:33.332Z,4.15
2018-12-03T18:39:01.862Z,4.53
2018-12-03T18:41:30.281Z,3.05
2018-12-03T18:43:58.626Z,5.03
2018-12-03T18:46:27.005Z,2.83
2018-12-03T18:49:01.793Z,6.40
2018-12-03T18:51:30.397Z,15.80
2018-12-03T18:53:58.711Z,6.83
2018-12-03T18:56:27.139Z,2.33
2018-12-03T18:58:59.934Z,4.03
2018-12-03T19:01:28.384Z,2.60
2018-12-03T19:03:56.814Z,8.90
2018-12-03T19:06:25.264Z,5.90
2018-12-03T19:08:54.106Z,4.40
2018-12-03T19:11:23.213Z,2.50
2018-12-03T19:13:55.472Z,12.43
2018-12-03T19:16:28.288Z,2.45
2018-12-03T19:18:56.880Z,6.25
2018-12-03T19:21:56.350Z,4.25
2018-12-03T19:24:24.800Z,11.80
2018-12-03T19:26:53.336Z,7.03
2018-12-03T19:29:21.760Z,1.87
2018-12-03T19:31:50.204Z,3.23
2018-12-03T19:34:18.682Z,5.70
2018-12-03T19:36:47.237Z,1.00
2018-12-03T19:39:19.570Z,1.42
2018-12-03T19:41:56.915Z,1.10
2018-12-03T19:44:37.378Z,2.75
2018-12-03T19:47:23.554Z,2.08
2018-12-03T19:49:52.144Z,1.22
2018-12-03T19:52:22.364Z,1.12
2018-12-03T19:55:10.388Z,1.25
2018-12-03T19:57:48.730Z,1.00
2018-12-03T20:00:32.035Z,1.35
2018-12-03T20:03:00.891Z,0.85
2018-12-03T20:05:49.167Z,0.70
2018-12-03T20:08:26.144Z,3.20
2018-12-03T20:11:13.490Z,1.45
2018-12-03T20:13:48.224Z,2.10
2018-12-03T20:16:36.074Z,3.08
2018-12-03T20:19:15.690Z,3.67
2018-12-03T20:24:57.168Z,2.67
2018-12-03T20:27:49.388Z,6.10
2018-12-03T20:30:37.200Z,3.83
2018-12-03T20:33:24.129Z,2.00
2018-12-03T20:38:32.732Z,2.50
2018-12-03T20:41:18.377Z,7.47
2018-12-03T20:44:11.527Z,1.20
2018-12-03T20:51:01.021Z,2.00
2018-12-03T20:54:03.082Z,6.72
2018-12-03T20:56:32.051Z,1.80
2018-12-03T20:59:00.575Z,3.70
2018-12-03T21:01:29.380Z,1.57
2018-12-03T21:03:57.778Z,1.10
2018-12-03T21:06:26.112Z,1.00
2018-12-03T21:08:54.646Z,1.80
2018-12-03T21:11:23.066Z,3.72
2018-12-03T21:13:58.151Z,2.45
2018-12-03T21:16:26.673Z,3.83
2018-12-03T21:18:55.425Z,2.65
2018-12-03T21:21:31.852Z,1.55
2018-12-03T21:24:00.200Z,1.87
2018-12-03T21:26:35.975Z,10.20
2018-12-03T21:29:04.387Z,3.80
2018-12-03T21:31:32.795Z,3.47
2018-12-03T21:34:01.398Z,1.20
2018-12-03T21:36:30.858Z,2.20
2018-12-03T21:39:04.951Z,1.50
2018-12-03T21:41:33.405Z,2.33
2018-12-03T21:44:01.774Z,6.60
2018-12-03T21:46:30.111Z,12.63
2018-12-03T21:49:09.836Z,2.42
2018-12-03T21:51:38.310Z,6.97
2018-12-03T21:54:22.735Z,5.10
2018-12-03T21:56:58.306Z,8.40
2018-12-03T21:59:26.692Z,4.53
2018-12-03T22:01:55.163Z,12.73
2018-12-03T22:04:35.943Z,4.33
2018-12-03T22:07:17.623Z,5.65
2018-12-03T22:09:54.231Z,6.62
2018-12-03T22:12:39.865Z,4.37
2018-12-03T22:15:08.759Z,3.50
2018-12-03T22:17:46.919Z,3.17
2018-12-03T22:20:29.116Z,10.53
2018-12-03T22:22:57.770Z,6.70
2018-12-03T22:25:26.100Z,7.35
2018-12-03T22:27:54.414Z,4.80
2018-12-03T22:30:22.818Z,10.32
2018-12-03T22:33:01.639Z,3.47
2018-12-03T22:35:30.124Z,3.52
2018-12-03T22:37:59.243Z,3.95
2018-12-03T22:40:27.781Z,6.55
2018-12-03T22:42:56.774Z,4.35
2018-12-03T22:45:25.150Z,3.67
2018-12-03T22:47:53.621Z,6.35
2018-12-03T22:50:22.080Z,6.30
2018-12-03T22:52:51.747Z,6.55
2018-12-03T22:55:20.122Z,6.40
2018-12-03T22:57:48.633Z,3.50
2018-12-03T23:00:22.271Z,3.62
2018-12-03T23:02:50.745Z,5.08
2018-12-03T23:05:19.261Z,8.63
2018-12-03T23:07:47.652Z,8.83
2018-12-03T23:10:18.997Z,2.20
2018-12-03T23:12:47.657Z,8.53
2018-12-03T23:15:16.359Z,5.20
2018-12-03T23:17:44.891Z,10.35
2018-12-03T23:20:13.386Z,4.92
2018-12-03T23:22:42.089Z,4.97
2018-12-03T23:25:10.484Z,3.90
2018-12-03T23:27:39.026Z,3.70
2018-12-03T23:30:09.374Z,3.72
2018-12-03T23:32:40.354Z,6.45
2018-12-03T23:35:08.758Z,7.20
2018-12-03T23:37:37.056Z,2.17
2018-12-03T23:40:05.489Z,1.70
2018-12-03T23:42:33.839Z,2.25
2018-12-03T23:45:02.286Z,1.87
2018-12-03T23:47:30.831Z,9.53
2018-12-03T23:49:59.202Z,7.17
2018-12-03T23:52:27.509Z,3.05
2018-12-03T23:54:56.078Z,5.33
2018-12-03T23:57:24.515Z,1.98
2018-12-03T23:59:52.808Z,4.70
